createdAt,value
2022-08-08T00:00:50.782Z,1.50
2022-08-08T00:02:53.956Z,1.75
2022-08-08T00:06:02.847Z,1.90
2022-08-08T00:09:03.072Z,1.70
2022-08-08T00:12:09.668Z,1.52
2022-08-08T00:15:17.676Z,1.58
2022-08-08T00:18:26.905Z,1.50
2022-08-08T00:21:26.785Z,1.45
2022-08-08T00:24:31.825Z,1.35
2022-08-08T00:27:23.959Z,1.30
2022-08-08T00:30:25.104Z,1.30
2022-08-08T00:33:24.057Z,1.48
2022-08-08T00:36:35.128Z,1.83
2022-08-08T00:40:43.799Z,1.40
2022-08-08T00:42:59.345Z,1.40
2022-08-08T00:46:56.932Z,1.45
2022-08-08T00:49:59.651Z,2.33
2022-08-08T00:53:15.843Z,1.30
2022-08-08T00:56:41.774Z,1.42
2022-08-08T01:00:04.895Z,1.27
2022-08-08T01:04:01.854Z,1.35
2022-08-08T01:07:18.731Z,1.40
2022-08-08T01:10:50.759Z,1.30
2022-08-08T01:13:52.771Z,1.30
2022-08-08T01:17:13.109Z,1.42
2022-08-08T01:20:38.742Z,1.50
2022-08-08T01:24:02.558Z,1.42
2022-08-08T01:27:21.407Z,1.42
2022-08-08T01:31:00.546Z,1.70
2022-08-08T01:34:34.667Z,1.60
2022-08-08T01:37:58.054Z,1.42
2022-08-08T01:41:11.691Z,1.50
2022-08-08T01:44:22.623Z,1.60
2022-08-08T01:48:15.737Z,1.42
2022-08-08T01:51:31.455Z,1.70
2022-08-08T01:55:19.326Z,1.45
2022-08-08T01:58:12.206Z,1.50
2022-08-08T02:02:00.543Z,1.27
2022-08-08T02:05:01.356Z,1.33
2022-08-08T02:08:16.269Z,1.38
2022-08-08T02:11:52.781Z,1.40
2022-08-08T02:14:49.772Z,1.40
2022-08-08T02:17:58.708Z,1.30
2022-08-08T02:21:26.316Z,1.48
2022-08-08T02:24:24.851Z,1.55
2022-08-08T02:27:42.151Z,1.73
2022-08-08T02:31:04.745Z,1.63
2022-08-08T02:35:07.679Z,2.00
2022-08-08T02:38:30.130Z,1.73
2022-08-08T02:41:58.403Z,1.50
2022-08-08T02:45:31.741Z,1.75
2022-08-08T02:49:13.486Z,1.52
2022-08-08T02:52:51.341Z,1.60
2022-08-08T02:56:06.620Z,1.50
2022-08-08T02:59:25.884Z,1.70
2022-08-08T03:02:50.873Z,1.90
2022-08-08T03:06:24.152Z,1.80
2022-08-08T03:10:00.787Z,1.80
2022-08-08T03:13:33.910Z,1.83
2022-08-08T03:16:35.642Z,1.80
2022-08-08T03:19:51.053Z,1.85
2022-08-08T03:25:50.195Z,1.88
2022-08-08T03:28:53.405Z,2.07
2022-08-08T03:32:06.741Z,1.85
2022-08-08T03:34:58.644Z,2.15
2022-08-08T03:38:53.178Z,2.20
2022-08-08T03:40:59.670Z,2.20
2022-08-08T03:43:59.491Z,2.00
2022-08-08T03:46:51.163Z,1.73
2022-08-08T03:49:57.709Z,2.10
2022-08-08T03:52:54.060Z,2.50
2022-08-08T03:55:57.136Z,2.00
2022-08-08T03:58:50.376Z,2.28
2022-08-08T04:02:02.432Z,1.88
2022-08-08T04:04:52.762Z,2.38
2022-08-08T04:07:43.370Z,2.20
2022-08-08T04:10:37.349Z,2.00
2022-08-08T04:13:29.128Z,1.92
2022-08-08T04:16:41.044Z,2.28
2022-08-08T04:19:36.940Z,2.13
2022-08-08T04:22:29.344Z,2.17
2022-08-08T04:25:20.943Z,2.20
2022-08-08T04:28:40.125Z,2.17
2022-08-08T04:31:58.324Z,2.05
2022-08-08T04:34:42.806Z,1.85
2022-08-08T04:37:39.541Z,2.13
2022-08-08T04:40:38.677Z,2.08
2022-08-08T04:43:32.308Z,2.10
2022-08-08T04:46:39.403Z,2.20
2022-08-08T04:50:00.752Z,2.20
2022-08-08T04:52:40.591Z,2.30
2022-08-08T04:55:37.812Z,2.08
2022-08-08T04:58:46.198Z,2.08
2022-08-08T05:01:48.052Z,2.30
2022-08-08T05:04:42.108Z,2.40
2022-08-08T05:07:38.248Z,1.92
2022-08-08T05:10:33.565Z,2.60
2022-08-08T05:13:26.019Z,2.58
2022-08-08T05:16:52.551Z,2.13
2022-08-08T05:20:09.147Z,2.10
2022-08-08T05:22:37.849Z,2.58
2022-08-08T05:25:40.484Z,2.17
2022-08-08T05:28:56.585Z,2.92
2022-08-08T05:32:03.712Z,2.70
2022-08-08T05:34:53.342Z,2.70
2022-08-08T05:37:54.739Z,1.90
2022-08-08T05:41:07.241Z,2.40
2022-08-08T05:44:19.620Z,2.20
2022-08-08T05:47:10.507Z,2.30
2022-08-08T05:50:06.581Z,2.08
2022-08-08T05:52:57.756Z,2.33
2022-08-08T05:56:14.558Z,2.90
2022-08-08T05:59:13.948Z,2.20
2022-08-08T06:02:37.632Z,2.40
2022-08-08T06:05:35.485Z,2.08
2022-08-08T06:08:34.423Z,2.30
2022-08-08T06:11:33.685Z,1.92
2022-08-08T06:14:30.715Z,2.00
2022-08-08T06:17:32.022Z,1.95
2022-08-08T06:20:33.647Z,2.08
2022-08-08T06:23:48.963Z,1.77
2022-08-08T06:26:50.510Z,1.90
2022-08-08T06:30:00.858Z,2.00
2022-08-08T06:33:00.941Z,1.98
2022-08-08T06:36:06.995Z,1.92
2022-08-08T06:39:01.924Z,2.17
2022-08-08T06:41:59.890Z,2.10
2022-08-08T06:48:00.607Z,1.92
2022-08-08T06:50:58.352Z,2.42
2022-08-08T06:53:50.883Z,1.95
2022-08-08T06:56:51.590Z,2.00
2022-08-08T07:02:57.661Z,2.00
2022-08-08T07:06:02.286Z,2.70
2022-08-08T07:08:58.491Z,2.35
2022-08-08T07:11:54.837Z,2.72
2022-08-08T07:15:06.268Z,2.33
2022-08-08T07:18:35.669Z,2.05
2022-08-08T07:21:31.193Z,2.20
2022-08-08T07:24:29.527Z,1.90
2022-08-08T07:27:27.640Z,2.38
2022-08-08T07:30:25.569Z,2.03
2022-08-08T07:33:22.738Z,2.10
2022-08-08T07:36:15.098Z,3.00
2022-08-08T07:39:07.298Z,2.17
2022-08-08T07:42:05.484Z,2.10
2022-08-08T07:47:52.615Z,2.50
2022-08-08T07:50:45.219Z,2.17
2022-08-08T07:54:03.242Z,2.10
2022-08-08T07:57:01.922Z,2.40
2022-08-08T08:00:16.355Z,1.80
2022-08-08T08:03:43.439Z,2.00
2022-08-08T08:06:38.534Z,2.05
2022-08-08T08:09:39.244Z,1.80
2022-08-08T08:12:38.060Z,1.92
2022-08-08T08:15:35.594Z,1.90
2022-08-08T08:18:33.838Z,1.92
2022-08-08T08:21:44.826Z,1.63
2022-08-08T08:24:49.568Z,1.90
2022-08-08T08:27:46.601Z,1.70
2022-08-08T08:30:39.335Z,2.17
2022-08-08T08:33:29.731Z,1.65
2022-08-08T08:36:26.398Z,1.53
2022-08-08T08:39:23.235Z,1.70
2022-08-08T08:42:29.372Z,1.90
2022-08-08T08:45:23.849Z,1.50
2022-08-08T08:48:20.545Z,1.90
2022-08-08T08:51:15.993Z,1.90
2022-08-08T08:54:07.970Z,1.80
2022-08-08T08:57:02.809Z,1.67
2022-08-08T09:00:14.756Z,1.55
2022-08-08T09:03:09.385Z,1.45
2022-08-08T09:06:02.500Z,2.13
2022-08-08T09:09:01.379Z,1.55
2022-08-08T09:12:02.143Z,1.88
2022-08-08T09:14:58.941Z,1.65
2022-08-08T09:17:56.084Z,1.50
2022-08-08T09:21:58.978Z,1.70
2022-08-08T09:24:02.424Z,1.63
2022-08-08T09:27:06.224Z,1.92
2022-08-08T09:30:10.594Z,1.73
2022-08-08T09:33:54.894Z,1.85
2022-08-08T09:36:22.730Z,1.75
2022-08-08T09:39:21.496Z,1.50
2022-08-08T09:42:22.177Z,1.88
2022-08-08T09:45:54.752Z,1.80
2022-08-08T09:48:50.186Z,1.50
2022-08-08T09:52:06.880Z,1.23
2022-08-08T09:54:51.969Z,1.58
2022-08-08T09:57:46.674Z,1.60
2022-08-08T10:03:55.746Z,1.55
2022-08-08T10:06:53.013Z,1.63
2022-08-08T10:10:00.399Z,1.60
2022-08-08T10:12:54.136Z,1.50
2022-08-08T10:15:59.298Z,1.20
2022-08-08T10:21:54.967Z,1.27
2022-08-08T10:24:46.947Z,1.30
2022-08-08T10:27:42.686Z,1.45
2022-08-08T10:30:59.683Z,1.20
2022-08-08T10:34:18.778Z,1.40
2022-08-08T10:36:59.764Z,1.45
2022-08-08T10:39:54.393Z,1.52
2022-08-08T10:42:47.221Z,1.35
2022-08-08T10:45:56.842Z,1.38
2022-08-08T10:48:57.689Z,1.17
2022-08-08T10:51:51.483Z,1.70
2022-08-08T10:54:56.089Z,1.48
2022-08-08T10:57:53.227Z,1.38
2022-08-08T11:00:53.365Z,1.58
2022-08-08T11:04:04.468Z,1.40
2022-08-08T11:07:01.380Z,1.30
2022-08-08T11:09:52.429Z,1.45
2022-08-08T11:12:47.180Z,1.20
2022-08-08T11:15:52.177Z,1.30
2022-08-08T11:18:50.990Z,1.02
2022-08-08T11:21:41.392Z,1.30
2022-08-08T11:24:35.623Z,1.10
2022-08-08T11:27:36.970Z,1.25
2022-08-08T11:30:31.819Z,1.13
2022-08-08T11:33:52.668Z,1.20
2022-08-08T11:36:38.189Z,1.30
2022-08-08T11:39:37.182Z,1.50
2022-08-08T11:42:30.979Z,5.50
2022-08-08T11:45:22.948Z,0.90
2022-08-08T11:48:20.381Z,0.95
2022-08-08T11:51:38.563Z,1.02
2022-08-08T11:54:34.167Z,1.30
2022-08-08T11:57:34.891Z,1.20
2022-08-08T12:00:28.713Z,1.10
2022-08-08T12:03:20.904Z,1.27
2022-08-08T12:06:15.968Z,1.17
2022-08-08T12:09:08.314Z,1.10
2022-08-08T12:11:58.629Z,1.25
2022-08-08T12:14:59.841Z,1.30
2022-08-08T12:17:51.305Z,1.20
2022-08-08T12:20:41.958Z,1.38
2022-08-08T12:23:43.034Z,1.10
2022-08-08T12:26:50.345Z,1.30
2022-08-08T12:29:58.889Z,1.17
2022-08-08T12:32:49.403Z,1.30
2022-08-08T12:35:41.114Z,1.30
2022-08-08T12:38:51.299Z,1.88
2022-08-08T12:41:57.165Z,1.30
2022-08-08T12:44:48.226Z,1.20
2022-08-08T12:48:04.811Z,1.13
2022-08-08T12:50:54.857Z,1.08
2022-08-08T12:53:59.624Z,1.00
2022-08-08T12:56:50.215Z,1.20
2022-08-08T13:00:04.666Z,1.00
2022-08-08T13:03:01.764Z,1.40
2022-08-08T13:06:13.840Z,1.23
2022-08-08T13:09:10.404Z,1.20
2022-08-08T13:12:24.586Z,1.05
2022-08-08T13:15:13.619Z,1.23
2022-08-08T13:18:11.595Z,1.13
2022-08-08T13:21:04.379Z,1.00
2022-08-08T13:23:57.470Z,1.15
2022-08-08T13:26:47.595Z,1.30
2022-08-08T13:30:02.760Z,1.10
2022-08-08T13:32:57.969Z,1.27
2022-08-08T13:35:50.820Z,1.00
2022-08-08T13:38:43.918Z,1.10
2022-08-08T13:41:39.443Z,0.98
2022-08-08T13:44:34.716Z,1.10
2022-08-08T13:47:28.959Z,0.98
2022-08-08T13:50:35.884Z,0.90
2022-08-08T13:53:36.517Z,1.10
2022-08-08T13:56:44.836Z,1.00
2022-08-08T13:59:49.170Z,1.10
2022-08-08T14:02:41.202Z,1.35
2022-08-08T14:05:35.993Z,1.08
2022-08-08T14:08:47.333Z,1.10
2022-08-08T14:11:38.166Z,0.90
2022-08-08T14:14:40.908Z,1.15
2022-08-08T14:17:57.139Z,1.02
2022-08-08T14:20:58.040Z,1.00
2022-08-08T14:24:03.815Z,1.30
2022-08-08T14:26:59.022Z,1.02
2022-08-08T14:29:57.661Z,1.08
2022-08-08T14:32:53.861Z,1.38
2022-08-08T14:35:44.439Z,1.00
2022-08-08T14:38:52.432Z,0.82
2022-08-08T14:41:53.258Z,0.97
2022-08-08T14:44:54.372Z,0.93
2022-08-08T14:47:51.464Z,1.10
2022-08-08T14:50:42.352Z,1.13
2022-08-08T14:53:55.860Z,0.80
2022-08-08T14:56:46.718Z,0.70
2022-08-08T14:59:44.444Z,1.10
2022-08-08T15:02:59.279Z,0.90
2022-08-08T15:05:54.420Z,0.95
2022-08-08T15:08:54.637Z,1.23
2022-08-08T15:11:46.477Z,0.70
2022-08-08T15:14:43.667Z,1.10
2022-08-08T15:17:33.843Z,1.30
2022-08-08T15:20:27.829Z,0.85
2022-08-08T15:23:18.034Z,1.00
2022-08-08T15:26:12.572Z,0.80
2022-08-08T15:29:03.309Z,0.50
2022-08-08T15:32:17.959Z,0.80
2022-08-08T15:35:07.539Z,0.90
2022-08-08T15:37:57.568Z,2.05
2022-08-08T15:40:47.974Z,0.60
2022-08-08T15:43:38.846Z,0.98
2022-08-08T15:46:35.085Z,0.68
2022-08-08T15:49:29.275Z,0.88
2022-08-08T15:55:12.012Z,1.00
2022-08-08T15:58:02.783Z,0.73
2022-08-08T16:00:53.206Z,0.90
2022-08-08T16:03:45.987Z,0.88
2022-08-08T16:06:44.776Z,0.70
2022-08-08T16:13:03.840Z,1.13
2022-08-08T16:13:14.106Z,1.33
2022-08-08T16:15:59.150Z,0.98
2022-08-08T16:18:57.766Z,0.80
2022-08-08T16:21:49.181Z,1.10
2022-08-08T16:24:44.218Z,0.70
2022-08-08T16:27:35.384Z,1.08
2022-08-08T16:30:36.173Z,0.73
2022-08-08T16:33:29.809Z,0.70
2022-08-08T16:36:33.362Z,0.70
2022-08-08T16:39:59.374Z,0.60
2022-08-08T16:42:35.195Z,1.00
2022-08-08T16:46:44.817Z,1.20
2022-08-08T16:48:41.229Z,0.80
2022-08-08T16:55:18.387Z,0.70
2022-08-08T16:55:23.833Z,0.75
2022-08-08T16:58:15.872Z,0.90
2022-08-08T17:01:11.134Z,0.80
2022-08-08T17:04:03.705Z,1.00
2022-08-08T17:06:53.999Z,0.65
2022-08-08T17:09:45.139Z,0.88
2022-08-08T17:12:36.920Z,0.80
2022-08-08T17:15:27.529Z,0.90
2022-08-08T17:18:37.768Z,0.70
2022-08-08T17:21:41.568Z,1.58
2022-08-08T17:24:32.983Z,0.80
2022-08-08T17:27:29.137Z,0.70
2022-08-08T17:30:35.019Z,0.70
2022-08-08T17:34:37.262Z,0.70
2022-08-08T17:36:36.467Z,1.25
2022-08-08T17:40:04.867Z,0.90
2022-08-08T17:42:37.395Z,0.80
2022-08-08T17:45:27.726Z,0.60
2022-08-08T17:48:30.708Z,0.68
2022-08-08T17:51:21.582Z,0.63
2022-08-08T17:54:22.313Z,1.13
2022-08-08T17:57:14.392Z,0.90
2022-08-08T18:00:13.330Z,0.77
2022-08-08T18:03:13.645Z,0.73
2022-08-08T18:06:06.936Z,0.82
2022-08-08T18:09:13.860Z,0.70
2022-08-08T18:12:05.097Z,0.68
2022-08-08T18:15:00.566Z,0.52
2022-08-08T18:18:09.623Z,0.70
2022-08-08T18:21:03.313Z,0.80
2022-08-08T18:24:02.210Z,0.75
2022-08-08T18:26:56.810Z,0.82
2022-08-08T18:29:48.488Z,0.70
2022-08-08T18:32:38.844Z,0.75
2022-08-08T18:35:41.839Z,0.90
2022-08-08T18:38:39.160Z,1.83
2022-08-08T18:41:51.028Z,1.23
2022-08-08T18:44:41.652Z,0.98
2022-08-08T18:47:33.783Z,0.93
2022-08-08T18:50:24.309Z,0.88
2022-08-08T18:53:15.272Z,1.35
2022-08-08T18:56:07.117Z,1.00
2022-08-08T18:58:57.859Z,0.70
2022-08-08T19:02:25.771Z,0.75
2022-08-08T19:05:00.613Z,1.00
2022-08-08T19:07:52.264Z,1.10
2022-08-08T19:10:43.066Z,0.60
2022-08-08T19:13:53.808Z,1.10
2022-08-08T19:16:48.203Z,1.02
2022-08-08T19:19:44.115Z,0.90
2022-08-08T19:22:49.958Z,1.05
2022-08-08T19:26:22.527Z,1.13
2022-08-08T19:28:52.123Z,1.00
2022-08-08T19:31:47.014Z,0.75
2022-08-08T19:34:41.468Z,1.00
2022-08-08T19:37:43.816Z,1.42
2022-08-08T19:40:38.131Z,1.10
2022-08-08T19:43:32.614Z,0.90
2022-08-08T19:46:42.934Z,1.13
2022-08-08T19:49:37.643Z,1.35
2022-08-08T19:52:35.317Z,1.08
2022-08-08T19:55:27.079Z,1.40
2022-08-08T19:58:24.210Z,1.30
2022-08-08T20:01:17.373Z,1.35
2022-08-08T20:04:09.937Z,1.20
2022-08-08T20:07:05.390Z,1.60
2022-08-08T20:10:11.489Z,1.30
2022-08-08T20:13:14.823Z,2.05
2022-08-08T20:16:14.165Z,1.40
2022-08-08T20:19:06.342Z,0.90
2022-08-08T20:22:01.087Z,0.95
2022-08-08T20:24:53.249Z,1.60
2022-08-08T20:27:50.317Z,1.25
2022-08-08T20:30:56.018Z,1.08
2022-08-08T20:34:27.823Z,1.38
2022-08-08T20:36:57.276Z,1.20
2022-08-08T20:39:51.996Z,1.85
2022-08-08T20:42:50.053Z,2.08
2022-08-08T20:45:58.070Z,1.70
2022-08-08T20:48:58.331Z,1.00
2022-08-08T20:51:49.118Z,1.25
2022-08-08T20:54:41.326Z,1.00
2022-08-08T20:57:34.929Z,1.08
2022-08-08T21:00:39.426Z,0.90
2022-08-08T21:03:31.845Z,1.20
2022-08-08T21:06:52.954Z,1.00
2022-08-08T21:10:02.367Z,0.95
2022-08-08T21:12:54.883Z,0.80
2022-08-08T21:16:04.678Z,1.20
2022-08-08T21:18:57.411Z,1.10
2022-08-08T21:21:55.644Z,1.50
2022-08-08T21:24:53.353Z,0.90
2022-08-08T21:28:14.730Z,1.10
2022-08-08T21:30:55.528Z,0.85
2022-08-08T21:33:46.040Z,1.17
2022-08-08T21:36:58.260Z,1.23
2022-08-08T21:39:56.762Z,1.00
2022-08-08T21:42:47.606Z,0.90
2022-08-08T21:47:59.157Z,1.05
2022-08-08T21:48:50.939Z,0.82
2022-08-08T21:54:34.654Z,0.85
2022-08-08T21:55:03.246Z,1.10
2022-08-08T21:58:05.749Z,1.08
2022-08-08T22:00:58.403Z,1.25
2022-08-08T22:03:54.786Z,1.00
2022-08-08T22:06:44.760Z,1.00
2022-08-08T22:09:37.253Z,1.23
2022-08-08T22:12:31.162Z,1.20
2022-08-08T22:15:21.637Z,1.00
2022-08-08T22:18:12.190Z,1.20
2022-08-08T22:21:14.632Z,1.00
2022-08-08T22:24:06.757Z,1.40
2022-08-08T22:27:01.912Z,1.45
2022-08-08T22:29:59.056Z,1.10
2022-08-08T22:32:54.449Z,1.10
2022-08-08T22:36:04.247Z,1.15
2022-08-08T22:38:55.715Z,1.10
2022-08-08T22:41:46.754Z,1.40
2022-08-08T22:44:40.035Z,1.07
2022-08-08T22:47:37.569Z,1.30
2022-08-08T22:50:28.813Z,1.17
2022-08-08T22:54:30.360Z,1.45
2022-08-08T22:56:31.338Z,1.17
2022-08-08T22:59:21.921Z,1.33
2022-08-08T23:02:13.030Z,1.35
2022-08-08T23:05:07.560Z,1.30
2022-08-08T23:08:03.847Z,1.00
2022-08-08T23:10:57.846Z,1.42
2022-08-08T23:14:01.162Z,1.20
2022-08-08T23:16:59.173Z,1.40
2022-08-08T23:19:49.916Z,1.48
2022-08-08T23:22:44.607Z,1.50
2022-08-08T23:25:42.685Z,1.20
2022-08-08T23:28:38.755Z,1.30
2022-08-08T23:31:38.589Z,1.58
2022-08-08T23:34:31.003Z,1.30
2022-08-08T23:37:24.631Z,1.42
2022-08-08T23:40:15.576Z,1.40
2022-08-08T23:43:06.217Z,1.70
2022-08-08T23:49:02.526Z,1.23
2022-08-08T23:49:18.334Z,1.48
2022-08-08T23:52:13.048Z,1.73
2022-08-08T23:55:14.296Z,1.38
2022-08-08T23:58:31.907Z,1.13
